createdAt,value
2019-04-04T00:01:16.992Z,50.41
2019-04-04T00:03:51.527Z,50.63
2019-04-04T00:06:22.588Z,50.85
2019-04-04T00:08:55.264Z,50.63
2019-04-04T00:11:27.929Z,50.63
2019-04-04T00:14:01.241Z,50.50
2019-04-04T00:16:36.313Z,50.63
2019-04-04T00:19:10.476Z,50.60
2019-04-04T00:21:43.483Z,50.64
2019-04-04T00:24:15.643Z,50.43
2019-04-04T00:26:50.690Z,50.53
2019-04-04T00:29:40.448Z,50.66
2019-04-04T00:32:11.903Z,50.80
2019-04-04T00:34:45.465Z,50.83
2019-04-04T00:37:31.566Z,50.97
2019-04-04T00:40:10.882Z,51.11
2019-04-04T00:42:43.473Z,51.46
2019-04-04T00:45:17.675Z,51.22
2019-04-04T00:47:49.125Z,51.49
2019-04-04T00:50:30.458Z,51.83
2019-04-04T00:53:06.571Z,51.99
2019-04-04T00:55:39.433Z,52.11
2019-04-04T00:58:12.123Z,52.39
2019-04-04T01:00:49.328Z,52.62
2019-04-04T01:03:33.328Z,52.97
2019-04-04T01:06:06.144Z,53.11
2019-04-04T01:08:38.793Z,53.23
2019-04-04T01:11:11.375Z,53.61
2019-04-04T01:13:46.077Z,53.43
2019-04-04T01:16:21.469Z,53.27
2019-04-04T01:18:52.929Z,53.33
2019-04-04T01:21:24.560Z,53.30
2019-04-04T01:23:58.978Z,52.93
2019-04-04T01:26:34.863Z,52.70
2019-04-04T01:29:10.181Z,52.61
2019-04-04T01:31:48.648Z,52.50
2019-04-04T01:34:21.507Z,52.60
2019-04-04T01:36:56.353Z,52.43
2019-04-04T01:39:33.144Z,52.55
2019-04-04T01:42:08.518Z,52.68
2019-04-04T01:44:49.855Z,52.64
2019-04-04T01:47:24.318Z,52.86
2019-04-04T01:49:58.601Z,52.70
2019-04-04T01:52:41.451Z,52.86
2019-04-04T01:55:18.729Z,53.16
2019-04-04T01:57:52.275Z,53.21
2019-04-04T02:00:23.734Z,53.41
2019-04-04T02:02:57.730Z,53.53
2019-04-04T02:05:30.323Z,53.73
2019-04-04T02:08:01.758Z,53.74
2019-04-04T02:10:35.669Z,53.83
2019-04-04T02:13:09.491Z,54.05
2019-04-04T02:15:42.858Z,54.01
2019-04-04T02:18:16.808Z,54.06
2019-04-04T02:20:48.251Z,54.27
2019-04-04T02:23:26.754Z,54.27
2019-04-04T02:26:00.653Z,54.48
2019-04-04T02:28:33.640Z,54.70
2019-04-04T02:31:07.586Z,54.96
2019-04-04T02:33:40.234Z,54.97
2019-04-04T02:36:16.255Z,54.81
2019-04-04T02:39:05.955Z,54.96
2019-04-04T02:41:38.860Z,54.97
2019-04-04T02:44:10.311Z,55.26
2019-04-04T02:46:44.756Z,55.29
2019-04-04T02:49:15.059Z,55.43
2019-04-04T02:51:46.508Z,55.59
2019-04-04T02:54:17.956Z,55.88
2019-04-04T02:56:51.872Z,55.91
2019-04-04T02:59:23.321Z,55.75
2019-04-04T03:01:57.226Z,55.90
2019-04-04T03:04:29.444Z,55.95
2019-04-04T03:07:02.277Z,55.90
2019-04-04T03:09:34.666Z,56.11
2019-04-04T03:12:07.335Z,56.37
2019-04-04T03:14:38.779Z,56.50
2019-04-04T03:17:10.327Z,56.58
2019-04-04T03:19:44.575Z,56.37
2019-04-04T03:22:16.689Z,56.44
2019-04-04T03:24:49.985Z,56.36
2019-04-04T03:27:25.636Z,56.34
2019-04-04T03:29:56.387Z,56.40
2019-04-04T03:32:27.853Z,56.43
2019-04-04T03:34:59.315Z,56.36
2019-04-04T03:37:31.064Z,56.39
2019-04-04T03:40:03.900Z,56.39
2019-04-04T03:42:36.741Z,56.52
2019-04-04T03:45:08.638Z,56.55
2019-04-04T03:47:44.598Z,56.50
2019-04-04T03:50:15.684Z,56.44
2019-04-04T03:52:48.359Z,56.33
2019-04-04T03:55:21.953Z,56.33
2019-04-04T03:57:55.340Z,56.50
2019-04-04T04:00:29.885Z,56.75
2019-04-04T04:03:01.540Z,56.65
2019-04-04T04:05:36.660Z,56.41
2019-04-04T04:08:08.736Z,56.72
2019-04-04T04:10:40.178Z,56.63
2019-04-04T04:13:16.182Z,56.91
2019-04-04T04:15:48.294Z,56.94
2019-04-04T04:18:21.725Z,57.16
2019-04-04T04:20:54.579Z,57.14
2019-04-04T04:23:27.263Z,56.83
2019-04-04T04:26:00.856Z,56.92
2019-04-04T04:28:33.545Z,56.92
2019-04-04T04:31:06.249Z,56.80
2019-04-04T04:33:40.426Z,56.68
2019-04-04T04:36:15.820Z,56.56
2019-04-04T04:38:47.952Z,56.51
2019-04-04T04:41:24.619Z,56.25
2019-04-04T04:43:58.925Z,56.21
2019-04-04T04:46:31.828Z,56.01
2019-04-04T04:49:04.502Z,55.85
2019-04-04T04:51:38.094Z,55.72
2019-04-04T04:54:10.800Z,55.81
2019-04-04T04:56:44.388Z,55.40
2019-04-04T04:59:17.065Z,55.14
2019-04-04T05:01:50.666Z,54.99
2019-04-04T05:04:22.743Z,54.88
2019-04-04T05:06:55.428Z,54.76
2019-04-04T05:09:28.106Z,54.47
2019-04-04T05:11:59.641Z,53.89
2019-04-04T05:14:32.536Z,53.48
2019-04-04T05:17:08.069Z,52.99
2019-04-04T05:19:40.662Z,52.53
2019-04-04T05:22:14.267Z,52.11
2019-04-04T05:24:49.153Z,51.76
2019-04-04T05:27:19.956Z,50.96
2019-04-04T05:29:52.932Z,49.66
2019-04-04T05:32:25.622Z,44.50
2019-04-04T05:35:00.981Z,40.42
2019-04-04T05:37:32.524Z,38.84
2019-04-04T05:40:03.956Z,36.83
2019-04-04T05:42:37.563Z,36.21
2019-04-04T05:45:08.998Z,34.89
2019-04-04T05:47:41.693Z,34.57
2019-04-04T05:50:16.491Z,33.85
2019-04-04T05:52:48.277Z,33.20
2019-04-04T05:55:19.778Z,32.88
2019-04-04T05:57:51.634Z,32.91
2019-04-04T06:00:25.069Z,32.89
2019-04-04T06:02:56.555Z,32.83
2019-04-04T06:05:28.308Z,32.35
2019-04-04T06:07:59.784Z,31.23
2019-04-04T06:10:31.191Z,32.22
2019-04-04T06:13:02.726Z,30.73
2019-04-04T06:15:35.324Z,30.83
2019-04-04T06:18:10.988Z,30.17
2019-04-04T06:20:42.538Z,29.01
2019-04-04T06:23:14.019Z,29.27
2019-04-04T06:25:45.454Z,28.83
2019-04-04T06:28:16.948Z,28.83
2019-04-04T06:30:53.493Z,28.12
2019-04-04T06:33:24.398Z,28.81
2019-04-04T06:35:55.843Z,27.52
2019-04-04T06:38:29.447Z,27.82
2019-04-04T06:41:02.165Z,28.06
2019-04-04T06:43:33.616Z,27.67
2019-04-04T06:46:05.063Z,26.41
2019-04-04T06:48:36.478Z,25.95
2019-04-04T06:51:09.158Z,25.69
2019-04-04T06:53:41.854Z,26.91
2019-04-04T06:56:13.376Z,27.96
2019-04-04T06:58:46.297Z,27.87
2019-04-04T07:01:20.947Z,27.57
2019-04-04T07:03:52.752Z,27.07
2019-04-04T07:06:25.567Z,26.65
2019-04-04T07:08:58.248Z,27.13
2019-04-04T07:11:29.683Z,27.69
2019-04-04T07:14:02.361Z,27.25
2019-04-04T07:16:36.763Z,29.15
2019-04-04T07:19:09.583Z,28.30
2019-04-04T07:21:41.053Z,28.56
2019-04-04T07:24:12.496Z,28.20
2019-04-04T07:26:45.495Z,28.35
2019-04-04T07:29:18.441Z,28.98
2019-04-04T07:31:51.129Z,28.70
2019-04-04T07:34:22.578Z,29.17
2019-04-04T07:36:54.031Z,29.70
2019-04-04T07:39:26.711Z,29.82
2019-04-04T07:41:58.152Z,29.77
2019-04-04T07:44:30.867Z,29.07
2019-04-04T07:47:02.293Z,28.74
2019-04-04T07:49:34.674Z,28.91
2019-04-04T07:52:06.269Z,29.34
2019-04-04T07:54:39.222Z,30.06
2019-04-04T07:57:10.898Z,30.67
2019-04-04T07:59:43.557Z,30.02
2019-04-04T08:02:15.014Z,29.46
2019-04-04T08:04:46.768Z,29.29
2019-04-04T08:07:18.195Z,29.41
2019-04-04T08:09:50.887Z,29.29
2019-04-04T08:12:22.323Z,29.74
2019-04-04T08:14:55.019Z,29.12
2019-04-04T08:17:26.458Z,28.51
2019-04-04T08:20:00.129Z,28.69
2019-04-04T08:22:34.301Z,28.58
2019-04-04T08:25:06.205Z,28.57
2019-04-04T08:27:39.022Z,28.96
2019-04-04T08:30:11.698Z,29.07
2019-04-04T08:32:45.296Z,28.66
2019-04-04T08:35:18.008Z,29.47
2019-04-04T08:37:49.457Z,28.93
2019-04-04T08:40:21.263Z,29.09
2019-04-04T08:42:53.879Z,28.75
2019-04-04T08:45:26.570Z,28.71
2019-04-04T08:47:58.029Z,29.52
2019-04-04T08:50:31.929Z,29.59
2019-04-04T08:53:03.400Z,29.75
2019-04-04T08:55:35.307Z,30.15
2019-04-04T08:58:06.931Z,29.81
2019-04-04T09:00:38.663Z,30.48
2019-04-04T09:03:11.318Z,30.53
2019-04-04T09:05:44.005Z,30.30
2019-04-04T09:08:16.680Z,30.10
2019-04-04T09:10:50.281Z,29.69
2019-04-04T09:13:22.959Z,30.08
2019-04-04T09:15:55.958Z,30.91
2019-04-04T09:18:29.271Z,31.22
2019-04-04T09:21:03.164Z,30.78
2019-04-04T09:23:35.836Z,30.89
2019-04-04T09:26:08.516Z,31.09
2019-04-04T09:28:41.197Z,30.92
2019-04-04T09:31:12.732Z,30.86
2019-04-04T09:33:46.254Z,30.88
2019-04-04T09:36:18.625Z,30.34
2019-04-04T09:38:50.071Z,29.98
2019-04-04T09:41:22.755Z,29.48
2019-04-04T09:43:55.427Z,29.75
2019-04-04T09:46:29.032Z,29.92
2019-04-04T09:49:01.712Z,29.24
2019-04-04T09:51:34.390Z,29.55
2019-04-04T09:54:07.072Z,29.61
2019-04-04T09:56:39.752Z,29.24
2019-04-04T09:59:11.276Z,29.15
2019-04-04T10:01:43.886Z,29.16
2019-04-04T10:04:16.570Z,28.83
2019-04-04T10:06:48.035Z,28.76
2019-04-04T10:09:19.462Z,28.69
2019-04-04T10:11:52.158Z,28.71
2019-04-04T10:14:23.594Z,28.50
2019-04-04T10:16:56.329Z,28.43
2019-04-04T10:19:27.767Z,28.29
2019-04-04T10:21:59.193Z,28.30
2019-04-04T10:24:30.935Z,28.05
2019-04-04T10:27:03.636Z,27.98
2019-04-04T10:29:35.095Z,28.41
2019-04-04T10:32:06.539Z,28.50
2019-04-04T10:34:38.296Z,28.46
2019-04-04T10:37:10.048Z,28.51
2019-04-04T10:39:42.749Z,27.79
2019-04-04T10:42:14.176Z,27.58
2019-04-04T10:44:46.852Z,27.29
2019-04-04T10:47:18.407Z,27.33
2019-04-04T10:49:51.305Z,27.66
2019-04-04T10:52:24.916Z,28.03
2019-04-04T10:54:56.364Z,27.80
2019-04-04T10:57:27.807Z,26.66
2019-04-04T10:59:59.250Z,26.61
2019-04-04T11:02:30.724Z,26.72
2019-04-04T11:05:02.172Z,26.54
2019-04-04T11:07:35.911Z,26.90
2019-04-04T11:10:07.525Z,26.73
2019-04-04T11:12:39.890Z,26.20
2019-04-04T11:15:12.609Z,26.60
2019-04-04T11:17:45.874Z,26.33
2019-04-04T11:20:17.307Z,26.81
2019-04-04T11:22:49.996Z,26.41
2019-04-04T11:25:22.978Z,26.48
2019-04-04T11:27:55.654Z,26.23
2019-04-04T11:30:28.329Z,26.39
2019-04-04T11:33:01.011Z,26.32
2019-04-04T11:35:34.175Z,26.28
2019-04-04T11:38:05.781Z,26.62
2019-04-04T11:40:37.212Z,26.53
2019-04-04T11:43:09.888Z,26.43
2019-04-04T11:45:42.571Z,26.36
2019-04-04T11:48:15.266Z,26.56
2019-04-04T11:50:46.705Z,26.14
2019-04-04T11:53:20.339Z,26.24
2019-04-04T11:55:51.781Z,25.91
2019-04-04T11:58:23.225Z,26.33
2019-04-04T12:01:01.412Z,25.78
2019-04-04T12:03:34.108Z,25.84
2019-04-04T12:06:06.469Z,26.32
2019-04-04T12:08:39.161Z,25.89
2019-04-04T12:11:10.653Z,26.41
2019-04-04T12:13:42.084Z,26.43
2019-04-04T12:16:13.511Z,26.08
2019-04-04T12:18:45.255Z,26.12
2019-04-04T12:21:17.933Z,25.71
2019-04-04T12:23:51.493Z,26.32
2019-04-04T12:26:25.445Z,26.47
2019-04-04T12:29:00.113Z,26.61
2019-04-04T12:31:32.649Z,26.50
2019-04-04T12:34:05.359Z,26.45
2019-04-04T12:36:37.555Z,26.27
2019-04-04T12:39:09.270Z,25.99
2019-04-04T12:41:42.144Z,25.82
2019-04-04T12:44:13.601Z,26.12
2019-04-04T12:46:47.191Z,26.31
2019-04-04T12:49:19.885Z,26.37
2019-04-04T12:51:52.557Z,26.38
2019-04-04T12:54:25.259Z,26.43
2019-04-04T12:56:56.692Z,26.40
2019-04-04T12:59:29.393Z,26.22
2019-04-04T13:02:02.065Z,26.05
2019-04-04T13:04:33.505Z,25.97
2019-04-04T13:07:05.038Z,26.47
2019-04-04T13:09:38.568Z,26.28
2019-04-04T13:12:11.266Z,26.05
2019-04-04T13:14:44.225Z,25.82
2019-04-04T13:17:15.751Z,25.95
2019-04-04T13:19:48.364Z,25.42
2019-04-04T13:22:19.899Z,25.50
2019-04-04T13:24:52.491Z,25.43
2019-04-04T13:27:26.107Z,25.92
2019-04-04T13:29:57.547Z,25.81
2019-04-04T13:32:31.459Z,25.88
2019-04-04T13:35:05.693Z,25.82
2019-04-04T13:37:37.436Z,25.73
2019-04-04T13:40:08.880Z,25.68
2019-04-04T13:42:40.411Z,25.56
2019-04-04T13:45:12.091Z,25.43
2019-04-04T13:47:46.163Z,25.26
2019-04-04T13:50:20.645Z,25.53
2019-04-04T13:52:53.510Z,25.59
2019-04-04T13:55:27.397Z,25.35
2019-04-04T13:57:59.816Z,24.79
2019-04-04T14:00:31.373Z,24.90
2019-04-04T14:03:04.553Z,25.26
2019-04-04T14:05:37.194Z,25.22
2019-04-04T14:08:09.950Z,25.07
2019-04-04T14:10:41.351Z,25.16
2019-04-04T14:13:14.462Z,25.36
2019-04-04T14:15:47.310Z,25.02
2019-04-04T14:18:38.160Z,25.24
2019-04-04T14:21:03.685Z,25.57
2019-04-04T14:23:33.965Z,25.05
2019-04-04T14:26:06.648Z,25.10
2019-04-04T14:28:39.345Z,25.42
2019-04-04T14:31:12.480Z,25.55
2019-04-04T14:33:45.323Z,25.12
2019-04-04T14:36:17.671Z,24.81
2019-04-04T14:38:50.106Z,24.84
2019-04-04T14:41:21.988Z,24.96
2019-04-04T14:43:54.796Z,25.12
2019-04-04T14:46:26.236Z,25.47
2019-04-04T14:48:58.943Z,25.62
2019-04-04T14:51:30.663Z,25.44
2019-04-04T14:54:03.356Z,25.48
2019-04-04T14:56:36.033Z,25.51
2019-04-04T14:59:09.632Z,25.58
2019-04-04T15:01:42.313Z,25.57
2019-04-04T15:04:15.001Z,25.60
2019-04-04T15:06:46.518Z,25.50
2019-04-04T15:09:19.168Z,25.73
2019-04-04T15:11:50.591Z,25.60
2019-04-04T15:14:24.183Z,25.43
2019-04-04T15:16:57.236Z,25.56
2019-04-04T15:19:32.459Z,25.82
2019-04-04T15:22:04.541Z,25.72
2019-04-04T15:24:40.129Z,25.81
2019-04-04T15:27:16.338Z,25.70
2019-04-04T15:30:00.073Z,25.75
2019-04-04T15:32:40.444Z,25.78
2019-04-04T15:35:12.964Z,25.83
2019-04-04T15:37:46.579Z,25.92
2019-04-04T15:40:19.880Z,26.20
2019-04-04T15:42:51.326Z,25.91
2019-04-04T15:45:25.224Z,26.11
2019-04-04T15:48:02.814Z,26.14
2019-04-04T15:50:47.946Z,26.11
2019-04-04T15:53:22.316Z,26.06
2019-04-04T15:56:07.919Z,25.99
2019-04-04T15:58:52.314Z,25.92
2019-04-04T16:01:20.099Z,26.25
2019-04-04T16:07:15.544Z,26.56
2019-04-04T16:09:48.164Z,26.80
2019-04-04T16:12:20.984Z,26.78
2019-04-04T16:14:54.784Z,26.83
2019-04-04T16:17:26.237Z,27.14
2019-04-04T16:19:57.726Z,27.02
2019-04-04T16:22:29.121Z,26.95
2019-04-04T16:25:00.655Z,27.24
2019-04-04T16:27:32.399Z,27.32
2019-04-04T16:30:09.250Z,27.24
2019-04-04T16:32:40.838Z,27.34
2019-04-04T16:35:15.166Z,27.58
2019-04-04T16:37:46.752Z,27.72
2019-04-04T16:40:21.980Z,27.44
2019-04-04T16:42:56.186Z,27.36
2019-04-04T16:45:27.884Z,27.49
2019-04-04T16:48:01.183Z,27.82
2019-04-04T16:50:32.791Z,27.94
2019-04-04T16:53:04.350Z,28.00
2019-04-04T16:55:36.953Z,28.20
2019-04-04T16:58:09.426Z,28.11
2019-04-04T17:00:41.319Z,28.44
2019-04-04T17:03:14.242Z,28.52
2019-04-04T17:05:47.178Z,28.50
2019-04-04T17:08:18.617Z,28.92
2019-04-04T17:10:51.281Z,29.13
2019-04-04T17:13:26.093Z,29.27
2019-04-04T17:15:58.448Z,29.40
2019-04-04T17:18:30.827Z,29.66
2019-04-04T17:21:02.299Z,29.92
2019-04-04T17:23:37.222Z,30.19
2019-04-04T17:26:08.572Z,30.27
2019-04-04T17:28:40.122Z,30.62
2019-04-04T17:31:11.820Z,30.95
2019-04-04T17:33:44.662Z,31.10
2019-04-04T17:36:20.841Z,31.30
2019-04-04T17:38:54.834Z,31.65
2019-04-04T17:41:27.912Z,31.98
2019-04-04T17:44:02.211Z,32.21
2019-04-04T17:46:40.078Z,32.12
2019-04-04T17:49:14.744Z,32.21
2019-04-04T17:51:48.118Z,32.63
2019-04-04T17:54:22.233Z,32.56
2019-04-04T17:56:54.903Z,32.91
2019-04-04T17:59:26.395Z,33.09
2019-04-04T18:01:58.493Z,33.20
2019-04-04T18:04:31.285Z,33.43
2019-04-04T18:07:02.939Z,33.64
2019-04-04T18:09:34.920Z,33.82
2019-04-04T18:12:06.999Z,33.95
2019-04-04T18:14:43.330Z,34.14
2019-04-04T18:17:14.813Z,34.51
2019-04-04T18:19:50.648Z,34.66
2019-04-04T18:22:25.446Z,35.18
2019-04-04T18:24:56.879Z,35.22
2019-04-04T18:27:28.586Z,35.53
2019-04-04T18:30:02.526Z,35.82
2019-04-04T18:32:35.447Z,36.38
2019-04-04T18:35:08.455Z,36.68
2019-04-04T18:37:40.908Z,37.04
2019-04-04T18:40:12.652Z,37.64
2019-04-04T18:42:53.079Z,38.20
2019-04-04T18:45:17.496Z,38.53
2019-04-04T18:47:50.875Z,39.46
2019-04-04T18:50:23.407Z,39.84
2019-04-04T18:52:56.101Z,40.39
2019-04-04T18:55:27.746Z,40.43
2019-04-04T18:57:59.234Z,41.14
2019-04-04T19:00:31.855Z,41.63
2019-04-04T19:03:03.343Z,42.34
2019-04-04T19:05:37.071Z,43.23
2019-04-04T19:08:12.534Z,43.58
2019-04-04T19:10:44.482Z,43.95
2019-04-04T19:13:15.954Z,43.96
2019-04-04T19:15:48.883Z,44.02
2019-04-04T19:18:22.726Z,44.10
2019-04-04T19:20:57.111Z,44.29
2019-04-04T19:23:29.960Z,44.83
2019-04-04T19:26:03.041Z,44.45
2019-04-04T19:28:34.480Z,44.59
2019-04-04T19:31:07.756Z,44.56
2019-04-04T19:33:40.360Z,44.69
2019-04-04T19:36:14.723Z,45.00
2019-04-04T19:38:47.285Z,45.30
2019-04-04T19:41:18.757Z,45.95
2019-04-04T19:43:50.188Z,46.18
2019-04-04T19:46:22.565Z,46.79
2019-04-04T19:48:54.026Z,47.07
2019-04-04T19:51:25.480Z,47.48
2019-04-04T19:53:58.136Z,47.99
2019-04-04T19:56:30.519Z,48.31
2019-04-04T19:59:04.018Z,48.74
2019-04-04T20:01:36.346Z,49.08
2019-04-04T20:04:09.139Z,49.65
2019-04-04T20:06:45.811Z,49.44
2019-04-04T20:09:18.518Z,49.76
2019-04-04T20:11:51.900Z,50.17
2019-04-04T20:14:28.641Z,49.95
2019-04-04T20:16:59.011Z,50.33
2019-04-04T20:19:31.334Z,50.48
2019-04-04T20:22:04.452Z,50.82
2019-04-04T20:24:37.359Z,51.04
2019-04-04T20:27:08.805Z,51.38
2019-04-04T20:29:43.420Z,51.41
2019-04-04T20:32:17.247Z,51.46
2019-04-04T20:34:50.226Z,51.26
2019-04-04T20:37:23.600Z,51.11
2019-04-04T20:39:57.129Z,50.89
2019-04-04T20:42:28.753Z,51.15
2019-04-04T20:45:02.744Z,50.92
2019-04-04T20:47:37.100Z,50.74
2019-04-04T20:50:19.768Z,50.86
2019-04-04T20:52:56.125Z,50.84
2019-04-04T20:55:33.097Z,51.09
2019-04-04T20:58:06.874Z,51.05
2019-04-04T21:00:56.890Z,50.94
2019-04-04T21:03:30.052Z,50.92
2019-04-04T21:06:05.835Z,50.95
2019-04-04T21:08:43.947Z,50.69
2019-04-04T21:11:16.440Z,50.71
2019-04-04T21:13:56.430Z,51.04
2019-04-04T21:16:28.692Z,50.82
2019-04-04T21:19:01.464Z,50.81
2019-04-04T21:21:34.350Z,50.79
2019-04-04T21:24:07.042Z,50.65
2019-04-04T21:26:39.718Z,50.69
2019-04-04T21:29:13.324Z,50.69
2019-04-04T21:31:47.539Z,51.01
2019-04-04T21:34:24.777Z,50.89
2019-04-04T21:36:57.768Z,50.83
2019-04-04T21:39:30.261Z,50.81
2019-04-04T21:42:07.978Z,50.77
2019-04-04T21:44:41.961Z,50.73
2019-04-04T21:47:21.010Z,50.55
2019-04-04T21:49:57.225Z,50.73
2019-04-04T21:52:35.260Z,50.53
2019-04-04T21:55:07.766Z,50.45
2019-04-04T21:57:40.958Z,50.30
2019-04-04T22:00:12.584Z,50.38
2019-04-04T22:02:45.523Z,50.35
2019-04-04T22:05:18.590Z,50.70
2019-04-04T22:07:51.183Z,50.80
2019-04-04T22:10:41.051Z,51.03
2019-04-04T22:13:13.743Z,51.07
2019-04-04T22:15:50.583Z,51.15
2019-04-04T22:18:24.627Z,51.21
2019-04-04T22:20:57.297Z,51.14
2019-04-04T22:23:29.982Z,50.95
2019-04-04T22:26:03.584Z,50.80
2019-04-04T22:28:37.814Z,50.73
2019-04-04T22:31:09.253Z,50.66
2019-04-04T22:33:41.939Z,50.52
2019-04-04T22:36:14.606Z,50.46
2019-04-04T22:38:47.330Z,50.37
2019-04-04T22:41:20.932Z,50.26
2019-04-04T22:44:03.443Z,50.29
2019-04-04T22:46:31.496Z,50.28
2019-04-04T22:49:02.953Z,50.42
2019-04-04T22:51:34.392Z,50.55
2019-04-04T22:54:05.848Z,50.39
2019-04-04T22:56:38.247Z,50.25
2019-04-04T22:59:10.519Z,50.26
2019-04-04T23:01:42.055Z,50.20
2019-04-04T23:04:13.515Z,50.29
2019-04-04T23:06:44.951Z,50.39
2019-04-04T23:09:16.403Z,50.28
2019-04-04T23:11:47.907Z,50.35
2019-04-04T23:14:20.836Z,50.26
2019-04-04T23:16:52.271Z,50.30
2019-04-04T23:19:24.975Z,50.11
2019-04-04T23:21:56.424Z,50.31
2019-04-04T23:24:27.883Z,50.30
2019-04-04T23:26:59.323Z,50.31
2019-04-04T23:29:31.086Z,50.37
2019-04-04T23:32:02.549Z,50.37
2019-04-04T23:34:34.303Z,50.40
2019-04-04T23:37:06.048Z,50.49
2019-04-04T23:39:38.436Z,50.15
2019-04-04T23:42:09.881Z,49.77
2019-04-04T23:44:41.339Z,49.43
2019-04-04T23:47:17.635Z,49.41
2019-04-04T23:49:50.372Z,49.39
2019-04-04T23:52:23.192Z,49.86
2019-04-04T23:54:54.846Z,50.15
2019-04-04T23:57:26.577Z,51.02
2019-04-04T23:59:59.659Z,51.41
